createdAt,value
2022-12-15T00:01:06.710Z,62.89952
2022-12-15T00:06:08.462Z,66.08038
2022-12-15T00:11:10.084Z,64.25222
2022-12-15T00:16:11.779Z,64.28448
2022-12-15T00:21:13.451Z,64.93272
2022-12-15T00:26:15.064Z,65.11147
2022-12-15T00:31:17.000Z,63.41005
2022-12-15T00:36:18.663Z,62.04654
2022-12-15T00:41:20.263Z,62.45296
2022-12-15T00:46:21.969Z,66.09919
2022-12-15T00:51:23.617Z,63.32825
2022-12-15T00:56:25.235Z,66.17404
2022-12-15T01:01:27.126Z,66.46179
2022-12-15T01:06:28.808Z,64.96181
2022-12-15T01:11:30.416Z,64.9108
2022-12-15T01:16:32.087Z,66.76668
2022-12-15T01:21:33.763Z,66.85885
2022-12-15T01:26:35.375Z,63.91715
2022-12-15T01:31:37.064Z,63.66557
2022-12-15T01:36:38.844Z,65.20547
2022-12-15T01:41:40.439Z,66.59166
2022-12-15T01:46:42.172Z,63.19899
2022-12-15T01:51:43.785Z,65.42768
2022-12-15T01:56:45.402Z,64.87137
2022-12-15T02:01:49.593Z,65.93058
2022-12-15T02:06:51.889Z,64.89417
2022-12-15T02:11:53.500Z,67.42988
2022-12-15T02:16:55.135Z,63.4839
2022-12-15T02:21:56.797Z,65.27741
2022-12-15T02:26:58.405Z,68.85857
2022-12-15T02:32:00.172Z,71.60767
2022-12-15T02:37:01.819Z,71.0319
2022-12-15T02:42:03.457Z,69.22541
2022-12-15T02:47:05.094Z,67.51103
2022-12-15T02:52:06.737Z,65.71831
2022-12-15T02:57:08.388Z,65.61252
2022-12-15T03:02:10.137Z,66.06485
2022-12-15T03:07:11.938Z,64.82307
2022-12-15T03:12:13.557Z,66.04874
2022-12-15T03:17:15.235Z,66.86515
2022-12-15T03:22:16.899Z,67.32593
2022-12-15T03:27:18.494Z,62.22878
2022-12-15T03:32:20.222Z,63.15351
2022-12-15T03:37:21.913Z,64.47679
2022-12-15T03:42:23.529Z,64.64242
2022-12-15T03:47:25.141Z,64.12838
2022-12-15T03:52:26.769Z,64.44255
2022-12-15T03:57:28.438Z,64.31861
2022-12-15T04:02:30.250Z,61.56317
2022-12-15T04:07:31.991Z,63.70395
2022-12-15T04:12:33.705Z,63.22738
2022-12-15T04:17:35.375Z,65.5551
2022-12-15T04:22:36.985Z,67.79267
2022-12-15T04:27:38.634Z,66.78643
2022-12-15T04:32:40.287Z,65.9445
2022-12-15T04:37:41.955Z,67.49926
2022-12-15T04:42:43.622Z,65.2258
2022-12-15T04:47:45.209Z,66.35488
2022-12-15T04:52:46.949Z,66.09805
2022-12-15T04:57:48.641Z,66.32648
2022-12-15T05:02:50.511Z,68.67662
2022-12-15T05:07:52.145Z,68.34716
2022-12-15T05:12:53.836Z,67.23246
2022-12-15T05:17:55.505Z,69.74513
2022-12-15T05:22:57.115Z,71.14415
2022-12-15T05:27:58.803Z,69.25082
2022-12-15T05:33:00.522Z,65.58494
2022-12-15T05:38:02.193Z,63.97367
2022-12-15T05:43:03.850Z,61.81086
2022-12-15T05:48:05.499Z,65.38122
2022-12-15T05:53:07.205Z,68.54759
2022-12-15T05:58:08.873Z,71.10986
2022-12-15T06:03:10.641Z,65.79168
2022-12-15T06:08:12.402Z,69.75693
2022-12-15T06:13:14.019Z,67.51467
2022-12-15T06:18:15.646Z,69.764
2022-12-15T06:23:17.255Z,66.92137
2022-12-15T06:28:18.852Z,66.76461
2022-12-15T06:33:20.469Z,68.19134
2022-12-15T06:38:22.054Z,67.67718
2022-12-15T06:43:23.670Z,67.40677
2022-12-15T06:48:25.276Z,67.62528
2022-12-15T06:53:26.874Z,69.19884
2022-12-15T06:58:28.502Z,70.00364
2022-12-15T07:03:30.929Z,65.06511
2022-12-15T07:08:38.033Z,69.77416
2022-12-15T07:13:42.891Z,70.01408
2022-12-15T07:18:44.704Z,69.40503
2022-12-15T07:23:54.569Z,65.83528
2022-12-15T07:28:56.975Z,65.36881
2022-12-15T07:33:58.642Z,65.80455
2022-12-15T07:39:00.410Z,65.37686
2022-12-15T07:44:02.053Z,68.33529
2022-12-15T07:49:03.667Z,68.0729
2022-12-15T07:54:05.357Z,67.20189
2022-12-15T07:59:06.995Z,66.27407
2022-12-15T08:04:08.609Z,65.63254
2022-12-15T08:09:10.261Z,63.40426
2022-12-15T08:14:16.992Z,64.9225
2022-12-15T08:19:19.456Z,69.09311
2022-12-15T08:24:21.094Z,65.68255
2022-12-15T08:29:49.994Z,64.83812
2022-12-15T08:34:52.937Z,69.10525
2022-12-15T08:39:54.537Z,69.92654
2022-12-15T08:44:56.185Z,68.08309
2022-12-15T08:49:57.869Z,64.27777
2022-12-15T08:54:59.465Z,62.98533
2022-12-15T09:00:01.100Z,67.12034
2022-12-15T09:05:02.712Z,69.04048
2022-12-15T09:10:04.381Z,65.27733
2022-12-15T09:15:05.984Z,67.54852
2022-12-15T09:20:07.874Z,66.17387
2022-12-15T09:25:09.455Z,64.35176
2022-12-15T09:30:11.052Z,63.75653
2022-12-15T09:35:12.738Z,67.46114
2022-12-15T09:40:14.335Z,66.24229
2022-12-15T09:45:15.989Z,65.90766
2022-12-15T09:50:17.732Z,66.64871
2022-12-15T09:55:19.385Z,65.86137
2022-12-15T10:00:21.093Z,64.59397
2022-12-15T10:05:22.761Z,66.39696
2022-12-15T10:10:24.574Z,68.34328
2022-12-15T10:15:26.388Z,68.03812
2022-12-15T10:20:28.107Z,69.64515
2022-12-15T10:25:30.628Z,68.86638
2022-12-15T10:30:32.606Z,67.64645
2022-12-15T10:35:34.323Z,70.19972
2022-12-15T10:40:35.935Z,67.11552
2022-12-15T10:45:37.545Z,68.52254
2022-12-15T10:50:39.227Z,71.74685
2022-12-15T10:55:40.832Z,72.37748
2022-12-15T11:00:42.443Z,69.60466
2022-12-15T11:05:44.042Z,70.02243
2022-12-15T11:10:46.936Z,70.45219
2022-12-15T11:15:51.963Z,66.95993
2022-12-15T11:20:53.598Z,70.87041
2022-12-15T11:25:58.186Z,74.18654
2022-12-15T11:31:00.900Z,72.31096
2022-12-15T11:36:08.040Z,74.15031
2022-12-15T11:41:09.684Z,70.17289
2022-12-15T11:46:11.321Z,71.76968
2022-12-15T11:51:13.005Z,71.89532
2022-12-15T11:56:14.694Z,72.24323
2022-12-15T12:01:16.329Z,73.45307
2022-12-15T12:06:18.071Z,68.76657
2022-12-15T12:11:19.747Z,69.95953
2022-12-15T12:16:21.404Z,66.70689
2022-12-15T12:21:23.078Z,72.00094
2022-12-15T12:26:24.709Z,69.65902
2022-12-15T12:31:26.374Z,69.39335
2022-12-15T12:36:28.003Z,68.63
2022-12-15T12:41:29.639Z,70.38476
2022-12-15T12:46:31.244Z,67.15536
2022-12-15T12:51:32.850Z,68.56148
2022-12-15T12:56:34.459Z,64.10809
2022-12-15T13:01:36.372Z,66.69976
2022-12-15T13:06:38.202Z,67.18992
2022-12-15T13:11:39.828Z,65.56483
2022-12-15T13:17:01.359Z,64.73572
2022-12-15T13:22:26.528Z,64.53383
2022-12-15T13:27:28.163Z,65.7547
2022-12-15T13:32:29.844Z,67.35327
2022-12-15T13:37:36.701Z,67.14082
2022-12-15T13:42:51.263Z,64.59293
2022-12-15T13:47:56.483Z,64.74407
2022-12-15T15:03:05.714Z,65.20456
2022-12-15T15:08:22.121Z,70.0254
2022-12-15T15:13:23.781Z,74.36017
2022-12-15T15:18:25.420Z,72.69755
2022-12-15T15:23:27.101Z,70.11637
2022-12-15T15:28:29.160Z,73.48645
2022-12-15T15:33:31.257Z,71.47945
2022-12-15T15:38:33.609Z,67.9041
2022-12-15T15:43:35.724Z,68.65066
2022-12-15T15:48:37.417Z,66.3638
2022-12-15T15:53:39.071Z,67.72981
2022-12-15T15:58:40.716Z,64.72801
2022-12-15T16:03:42.636Z,64.8942
2022-12-15T16:08:44.445Z,63.68435
2022-12-15T16:13:46.072Z,65.94768
2022-12-15T16:18:47.714Z,65.50856
2022-12-15T16:23:49.390Z,65.76412
2022-12-15T16:28:50.967Z,63.16658
2022-12-15T16:33:52.587Z,68.79058
2022-12-15T16:38:54.366Z,67.93276
2022-12-15T16:43:55.964Z,68.34837
2022-12-15T16:48:57.689Z,68.96579
2022-12-15T16:53:59.376Z,65.4437
2022-12-15T16:59:31.425Z,66.92524
2022-12-15T17:04:33.578Z,66.79571
2022-12-15T17:09:35.406Z,69.77446
2022-12-15T17:14:37.113Z,69.64213
2022-12-15T17:19:41.896Z,67.54906
2022-12-15T17:24:49.874Z,68.46924
2022-12-15T17:29:51.527Z,66.64227
2022-12-15T17:34:53.320Z,69.31693
2022-12-15T17:39:54.917Z,67.57315
2022-12-15T17:44:56.804Z,64.15155
2022-12-15T17:49:58.475Z,66.98079
2022-12-15T17:55:00.094Z,65.4391
2022-12-15T18:00:01.863Z,66.90178
2022-12-15T18:05:03.602Z,63.53068
2022-12-15T18:10:05.199Z,64.80595
2022-12-15T18:15:06.796Z,68.69921
2022-12-15T18:20:08.398Z,65.16626
2022-12-15T18:25:10.074Z,63.67845
2022-12-15T18:30:11.707Z,60.45576
2022-12-15T18:35:13.381Z,60.57435
2022-12-15T18:40:15.039Z,59.29654
2022-12-15T18:45:16.661Z,59.28884
2022-12-15T18:50:18.266Z,63.52683
2022-12-15T18:55:19.886Z,63.47631
2022-12-15T19:00:21.642Z,63.04987
2022-12-15T19:05:23.148Z,62.21773
2022-12-15T19:10:24.988Z,59.7526
2022-12-15T19:15:26.750Z,57.08822
2022-12-15T19:20:28.410Z,58.83356
2022-12-15T19:25:30.241Z,59.27273
2022-12-15T19:30:34.609Z,56.08941
2022-12-15T19:35:40.226Z,57.22038
2022-12-15T19:40:42.066Z,56.55167
2022-12-15T19:45:43.744Z,56.84674
2022-12-15T19:50:45.443Z,57.39283
2022-12-15T19:55:47.062Z,56.56043
2022-12-15T20:00:50.125Z,56.10147
2022-12-15T20:05:51.755Z,55.50455
2022-12-15T20:10:53.352Z,54.41145
2022-12-15T20:15:55.021Z,55.2404
2022-12-15T20:20:56.666Z,54.76222
2022-12-15T20:25:58.299Z,54.94225
2022-12-15T20:31:00.029Z,52.84703
2022-12-15T20:36:01.603Z,51.84339
2022-12-15T20:41:03.194Z,51.30545
2022-12-15T20:46:04.916Z,56.01396
2022-12-15T20:51:09.624Z,56.40166
2022-12-15T20:56:11.682Z,53.75707
2022-12-15T21:01:13.714Z,50.13165
2022-12-15T21:06:29.014Z,51.46076
2022-12-15T21:11:31.231Z,50.69448
2022-12-15T21:16:33.163Z,51.54377
2022-12-15T21:21:34.825Z,52.23027
2022-12-15T21:26:36.506Z,52.15881
2022-12-15T21:31:38.244Z,51.28769
2022-12-15T21:36:39.857Z,49.82272
2022-12-15T21:41:46.378Z,51.37128
2022-12-15T21:46:48.207Z,51.11625
2022-12-15T21:51:50.067Z,51.40643
2022-12-15T21:56:53.550Z,52.15307
2022-12-15T22:01:57.051Z,54.99114
2022-12-15T22:06:58.775Z,55.59254
2022-12-15T22:12:00.440Z,54.0807
2022-12-15T22:17:02.167Z,54.24295
2022-12-15T22:22:03.765Z,55.79724
2022-12-15T22:27:05.406Z,56.43002
2022-12-15T22:32:07.162Z,55.34625
2022-12-15T22:37:08.801Z,56.09563
2022-12-15T22:42:10.407Z,57.16418
2022-12-15T22:47:12.079Z,57.82537
2022-12-15T22:52:13.766Z,58.38511
2022-12-15T22:57:29.763Z,57.82689
2022-12-15T23:02:31.514Z,60.0764
2022-12-15T23:07:33.218Z,61.27208
2022-12-15T23:12:34.843Z,62.96974
2022-12-15T23:17:36.563Z,64.69036
2022-12-15T23:22:38.268Z,61.26073
2022-12-15T23:27:40.010Z,61.41217
2022-12-15T23:32:41.630Z,60.67669
2022-12-15T23:37:43.295Z,59.94764
2022-12-15T23:42:44.980Z,63.74245
2022-12-15T23:47:46.681Z,64.55834
2022-12-15T23:52:51.790Z,61.97983
2022-12-15T23:57:53.723Z,62.0716
